Map

Track Data

SID SEASON NUMBER BASIN SUBBASIN NAME ISO_TIME NATURE LAT LON WMO_WIND WMO_PRES WMO_AGENCY TRACK_TYPE DIST2LAND LANDFALL IFLAG USA_AGENCY USA_ATCF_ID USA_LAT USA_LON USA_RECORD USA_STATUS USA_WIND USA_PRES USA_SSHS USA_R34_NE USA_R34_SE USA_R34_SW USA_R34_NW USA_R50_NE USA_R50_SE USA_R50_SW USA_R50_NW USA_R64_NE USA_R64_SE USA_R64_SW USA_R64_NW USA_POCI USA_ROCI USA_RMW USA_EYE TOKYO_LAT TOKYO_LON TOKYO_GRADE TOKYO_WIND TOKYO_PRES TOKYO_R50_DIR TOKYO_R50_LONG TOKYO_R50_SHORT TOKYO_R30_DIR TOKYO_R30_LONG TOKYO_R30_SHORT TOKYO_LAND CMA_LAT CMA_LON CMA_CAT CMA_WIND CMA_PRES HKO_LAT HKO_LON HKO_CAT HKO_WIND HKO_PRES NEWDELHI_LAT NEWDELHI_LON NEWDELHI_GRADE NEWDELHI_WIND NEWDELHI_PRES NEWDELHI_CI NEWDELHI_DP NEWDELHI_POCI REUNION_LAT REUNION_LON REUNION_TYPE REUNION_WIND REUNION_PRES REUNION_TNUM REUNION_CI REUNION_RMW REUNION_R34_NE REUNION_R34_SE REUNION_R34_SW REUNION_R34_NW REUNION_R50_NE REUNION_R50_SE REUNION_R50_SW REUNION_R50_NW REUNION_R64_NE REUNION_R64_SE REUNION_R64_SW REUNION_R64_NW BOM_LAT BOM_LON BOM_TYPE BOM_WIND BOM_PRES BOM_TNUM BOM_CI BOM_RMW BOM_R34_NE BOM_R34_SE BOM_R34_SW BOM_R34_NW BOM_R50_NE BOM_R50_SE BOM_R50_SW BOM_R50_NW BOM_R64_NE BOM_R64_SE BOM_R64_SW BOM_R64_NW BOM_ROCI BOM_POCI BOM_EYE BOM_POS_METHOD BOM_PRES_METHOD NADI_LAT NADI_LON NADI_CAT NADI_WIND NADI_PRES WELLINGTON_LAT WELLINGTON_LON WELLINGTON_WIND WELLINGTON_PRES DS824_LAT DS824_LON DS824_STAGE DS824_WIND DS824_PRES TD9636_LAT TD9636_LON TD9636_STAGE TD9636_WIND TD9636_PRES TD9635_LAT TD9635_LON TD9635_WIND TD9635_PRES TD9635_ROCI NEUMANN_LAT NEUMANN_LON NEUMANN_CLASS NEUMANN_WIND NEUMANN_PRES MLC_LAT MLC_LON MLC_CLASS MLC_WIND MLC_PRES USA_GUST BOM_GUST BOM_GUST_PER REUNION_GUST REUNION_GUST_PER USA_SEAHGT USA_SEARAD_NE USA_SEARAD_SE USA_SEARAD_SW USA_SEARAD_NW STORM_SPEED STORM_DIR
1892253N22267 1892 41 NA GM NOT_NAMED 1892-09-08 18:00:00 TS 22.0000 -92.8000 35 hurdat_atl main 277 277 O_____________ hurdat_atl AL041892 22.0000 -92.8000 TS 35 0 8 333
1892253N22267 1892 41 NA GM NOT_NAMED 1892-09-08 21:00:00 TS 22.3500 -92.9899 main 314 314 P_____________ AL041892 22.3500 -92.9899 TS 35 0 8 332
1892253N22267 1892 41 NA GM NOT_NAMED 1892-09-09 00:00:00 TS 22.7000 -93.2000 35 hurdat_atl main 348 348 O_____________ hurdat_atl AL041892 22.7000 -93.2000 TS 35 0 8 329
1892253N22267 1892 41 NA GM NOT_NAMED 1892-09-09 03:00:00 TS 23.0500 -93.4426 main 389 383 P_____________ AL041892 23.0500 -93.4426 TS 35 0 8 327
1892253N22267 1892 41 NA GM NOT_NAMED 1892-09-09 06:00:00 TS 23.4000 -93.7000 35 hurdat_atl main 418 382 O_____________ hurdat_atl AL041892 23.4000 -93.7000 TS 35 0 8 325
1892253N22267 1892 41 NA GM NOT_NAMED 1892-09-09 09:00:00 TS 23.7425 -93.9725 main 382 344 P_____________ AL041892 23.7425 -93.9725 TS 37 0 8 327
1892253N22267 1892 41 NA GM NOT_NAMED 1892-09-09 12:00:00 TS 24.1000 -94.2000 40 hurdat_atl main 344 316 O_____________ hurdat_atl AL041892 24.1000 -94.2000 TS 40 0 8 335
1892253N22267 1892 41 NA GM NOT_NAMED 1892-09-09 15:00:00 TS 24.4999 -94.3525 main 307 292 P_____________ AL041892 24.4999 -94.3525 TS 42 0 8 347
1892253N22267 1892 41 NA GM NOT_NAMED 1892-09-09 18:00:00 TS 24.9000 -94.4000 45 hurdat_atl main 292 284 O_____________ hurdat_atl AL041892 24.9000 -94.4000 TS 45 0 8 0
1892253N22267 1892 41 NA GM NOT_NAMED 1892-09-09 21:00:00 TS 25.2725 -94.3377 main 291 285 P_____________ AL041892 25.2725 -94.3377 TS 47 0 7 15
1892253N22267 1892 41 NA GM NOT_NAMED 1892-09-10 00:00:00 TS 25.6000 -94.2000 50 hurdat_atl main 293 291 O_____________ hurdat_atl AL041892 25.6000 -94.2000 TS 50 0 6 23
1892253N22267 1892 41 NA GM NOT_NAMED 1892-09-10 03:00:00 TS 25.8650 -94.0574 main 299 299 P_____________ AL041892 25.8650 -94.0574 TS 50 0 6 29
1892253N22267 1892 41 NA GM NOT_NAMED 1892-09-10 06:00:00 TS 26.1000 -93.9000 50 hurdat_atl main 319 319 O_____________ hurdat_atl AL041892 26.1000 -93.9000 TS 50 0 6 29
1892253N22267 1892 41 NA GM NOT_NAMED 1892-09-10 09:00:00 TS 26.3650 -93.7500 main 325 310 P_____________ AL041892 26.3650 -93.7500 TS 50 0 6 28
1892253N22267 1892 41 NA GM NOT_NAMED 1892-09-10 12:00:00 TS 26.6000 -93.6000 50 hurdat_atl main 310 296 O_____________ hurdat_atl AL041892 26.6000 -93.6000 TS 50 0 5 33
1892253N22267 1892 41 NA GM NOT_NAMED 1892-09-10 15:00:00 TS 26.7725 -93.4574 main 296 293 P_____________ AL041892 26.7725 -93.4574 TS 50 0 4 42
1892253N22267 1892 41 NA GM NOT_NAMED 1892-09-10 18:00:00 TS 26.9000 -93.3000 50 hurdat_atl main 299 289 O_____________ hurdat_atl AL041892 26.9000 -93.3000 TS 50 0 4 53
1892253N22267 1892 41 NA GM NOT_NAMED 1892-09-10 21:00:00 TS 27.0000 -93.1149 main 289 274 P_____________ AL041892 27.0000 -93.1149 TS 50 0 4 61
1892253N22267 1892 41 NA GM NOT_NAMED 1892-09-11 00:00:00 TS 27.1000 -92.9000 50 hurdat_atl main 274 259 O_____________ hurdat_atl AL041892 27.1000 -92.9000 TS 50 0 5 59
1892253N22267 1892 41 NA GM NOT_NAMED 1892-09-11 03:00:00 TS 27.2500 -92.6501 main 248 234 P_____________ AL041892 27.2500 -92.6501 TS 50 0 5 56
1892253N22267 1892 41 NA GM NOT_NAMED 1892-09-11 06:00:00 TS 27.4000 -92.4000 50 hurdat_atl main 234 218 O_____________ hurdat_atl AL041892 27.4000 -92.4000 TS 50 0 5 58
1892253N22267 1892 41 NA GM NOT_NAMED 1892-09-11 09:00:00 TS 27.4999 -92.1924 main 218 199 P_____________ AL041892 27.4999 -92.1924 TS 50 0 4 61
1892253N22267 1892 41 NA GM NOT_NAMED 1892-09-11 12:00:00 TS 27.6000 -92.0000 50 hurdat_atl main 199 179 O_____________ hurdat_atl AL041892 27.6000 -92.0000 TS 50 0 4 56
1892253N22267 1892 41 NA GM NOT_NAMED 1892-09-11 15:00:00 TS 27.7350 -91.7999 main 179 150 P_____________ AL041892 27.7350 -91.7999 TS 50 0 5 50
1892253N22267 1892 41 NA GM NOT_NAMED 1892-09-11 18:00:00 TS 27.9000 -91.6000 50 hurdat_atl main 150 121 O_____________ hurdat_atl AL041892 27.9000 -91.6000 TS 50 0 5 45
1892253N22267 1892 41 NA GM NOT_NAMED 1892-09-11 21:00:00 TS 28.0774 -91.4073 main 121 93 P_____________ AL041892 28.0774 -91.4073 TS 50 0 5 41
1892253N22267 1892 41 NA GM NOT_NAMED 1892-09-12 00:00:00 TS 28.3000 -91.2000 50 hurdat_atl main 93 56 O_____________ hurdat_atl AL041892 28.3000 -91.2000 TS 50 0 6 37
1892253N22267 1892 41 NA GM NOT_NAMED 1892-09-12 03:00:00 TS 28.5880 -90.9695 main 56 24 P_____________ AL041892 28.5880 -90.9695 TS 50 0 7 36
1892253N22267 1892 41 NA GM NOT_NAMED 1892-09-12 06:00:00 TS 28.9000 -90.7000 50 hurdat_atl main 24 11 O_____________ hurdat_atl AL041892 28.9000 -90.7000 TS 50 0 8 38
1892253N22267 1892 41 NA GM NOT_NAMED 1892-09-12 07:00:00 TS 29.0000 -90.6000 50 hurdat_atl main 11 0 O_____________ hurdat_atl AL041892 29.0000 -90.6000 L TS 50 0 8 36
1892253N22267 1892 41 NA GM NOT_NAMED 1892-09-12 09:00:00 TS 29.2382 -90.4216 main 9 0 P_____________ AL041892 29.2382 -90.4216 TS 47 0 10 32
1892253N22267 1892 41 NA NA NOT_NAMED 1892-09-12 12:00:00 TS 29.7000 -90.1000 45 hurdat_atl main 0 0 O_____________ hurdat_atl AL041892 29.7000 -90.1000 TS 45 0 12 37
1892253N22267 1892 41 NA GM NOT_NAMED 1892-09-12 15:00:00 TS 30.2268 -89.5489 main 0 0 P_____________ AL041892 30.2268 -89.5489 TS 42 0 16 41
1892253N22267 1892 41 NA NA NOT_NAMED 1892-09-12 18:00:00 TS 30.9000 -88.9000 40 hurdat_atl main 0 0 O_____________ hurdat_atl AL041892 30.9000 -88.9000 TS 40 0 19 35
1892253N22267 1892 41 NA NA NOT_NAMED 1892-09-12 21:00:00 TS 31.7398 -88.2993 main 0 0 P_____________ AL041892 31.7398 -88.2993 TS 37 0 21 30
1892253N22267 1892 41 NA NA NOT_NAMED 1892-09-13 00:00:00 TS 32.7000 -87.7000 35 hurdat_atl main 0 0 O_____________ hurdat_atl AL041892 32.7000 -87.7000 TS 35 0 22 28
1892253N22267 1892 41 NA NA NOT_NAMED 1892-09-13 03:00:00 TS 33.6773 -87.0915 main 0 0 P_____________ AL041892 33.6773 -87.0915 TS 35 0 22 27
1892253N22267 1892 41 NA NA NOT_NAMED 1892-09-13 06:00:00 TS 34.7000 -86.5000 35 hurdat_atl main 0 0 O_____________ hurdat_atl AL041892 34.7000 -86.5000 TS 35 0 23 25
1892253N22267 1892 41 NA NA NOT_NAMED 1892-09-13 09:00:00 TS 35.7197 -85.9404 main 0 0 P_____________ AL041892 35.7197 -85.9404 TS 37 0 23 23
1892253N22267 1892 41 NA NA NOT_NAMED 1892-09-13 12:00:00 ET 36.8000 -85.4000 40 hurdat_atl main 0 0 O_____________ hurdat_atl AL041892 36.8000 -85.4000 EX 40 -4 24 21
1892253N22267 1892 41 NA NA NOT_NAMED 1892-09-13 15:00:00 ET 37.9547 -84.8552 main 0 0 P_____________ AL041892 37.9547 -84.8552 EX 42 -4 26 20
1892253N22267 1892 41 NA NA NOT_NAMED 1892-09-13 18:00:00 ET 39.2000 -84.3000 45 hurdat_atl main 0 0 O_____________ hurdat_atl AL041892 39.2000 -84.3000 EX 45 -4 27 19
1892253N22267 1892 41 NA NA NOT_NAMED 1892-09-13 21:00:00 ET 40.5499 -83.6996 main 0 0 P_____________ AL041892 40.5499 -83.6996 EX 47 -4 29 19
1892253N22267 1892 41 NA NA NOT_NAMED 1892-09-14 00:00:00 ET 41.9000 -83.1000 50 hurdat_atl main 0 0 O_____________ hurdat_atl AL041892 41.9000 -83.1000 EX 50 -4 27 18
1892253N22267 1892 41 NA NA NOT_NAMED 1892-09-14 03:00:00 ET 43.1594 -82.5475 main 0 0 P_____________ AL041892 43.1594 -82.5475 EX 50 -4 25 18
1892253N22267 1892 41 NA NA NOT_NAMED 1892-09-14 06:00:00 ET 44.3000 -82.0000 50 hurdat_atl main 0 0 O_____________ hurdat_atl AL041892 44.3000 -82.0000 EX 50 -4 23 20
1892253N22267 1892 41 NA NA NOT_NAMED 1892-09-14 09:00:00 ET 45.3242 -81.4348 main 0 0 P_____________ AL041892 45.3242 -81.4348 EX 47 -4 21 24
1892253N22267 1892 41 NA NA NOT_NAMED 1892-09-14 12:00:00 ET 46.2000 -80.8000 45 hurdat_atl main 0 0 O_____________ hurdat_atl AL041892 46.2000 -80.8000 EX 45 -4 19 30
1892253N22267 1892 41 NA NA NOT_NAMED 1892-09-14 15:00:00 ET 46.9441 -80.0642 main 0 0 P_____________ AL041892 46.9441 -80.0642 EX 45 -4 18 38
1892253N22267 1892 41 NA NA NOT_NAMED 1892-09-14 18:00:00 ET 47.6000 -79.2000 45 hurdat_atl main 0 0 O_____________ hurdat_atl AL041892 47.6000 -79.2000 EX 45 -4 18 44
1892253N22267 1892 41 NA NA NOT_NAMED 1892-09-14 21:00:00 ET 48.2567 -78.2146 main 0 0 P_____________ AL041892 48.2567 -78.2146 EX 42 -4 19 47
1892253N22267 1892 41 NA NA NOT_NAMED 1892-09-15 00:00:00 ET 48.9000 -77.1000 40 hurdat_atl main 0 0 O_____________ hurdat_atl AL041892 48.9000 -77.1000 EX 40 -4 20 50
1892253N22267 1892 41 NA NA NOT_NAMED 1892-09-15 03:00:00 ET 49.5569 -75.8856 main 0 0 P_____________ AL041892 49.5569 -75.8856 EX 40 -4 21 51
1892253N22267 1892 41 NA NA NOT_NAMED 1892-09-15 06:00:00 ET 50.2000 -74.6000 40 hurdat_atl main 0 0 O_____________ hurdat_atl AL041892 50.2000 -74.6000 EX 40 -4 20 53
1892253N22267 1892 41 NA NA NOT_NAMED 1892-09-15 09:00:00 ET 50.8050 -73.3398 main 0 0 P_____________ AL041892 50.8050 -73.3398 EX 37 -4 20 54
1892253N22267 1892 41 NA NA NOT_NAMED 1892-09-15 12:00:00 ET 51.4000 -72.0000 35 hurdat_atl main 0 0 O_____________ hurdat_atl AL041892 51.4000 -72.0000 EX 35 -4 21 56
1892253N22267 1892 41 NA NA NOT_NAMED 1892-09-15 15:00:00 ET 51.9901 -70.5268 main 0 0 P_____________ AL041892 51.9901 -70.5268 EX 35 -4 22 58
1892253N22267 1892 41 NA NA NOT_NAMED 1892-09-15 18:00:00 ET 52.6000 -68.9000 35 hurdat_atl main 0 0 O_____________ hurdat_atl AL041892 52.6000 -68.9000 EX 35 -4 24 59
1892253N22267 1892 41 NA NA NOT_NAMED 1892-09-15 21:00:00 ET 53.2492 -67.0931 main 0 0 P_____________ AL041892 53.2492 -67.0931 EX 35 -4 26 60
1892253N22267 1892 41 NA NA NOT_NAMED 1892-09-16 00:00:00 ET 53.9000 -65.2000 35 hurdat_atl main 0 0 O_____________ hurdat_atl AL041892 53.9000 -65.2000 EX 35 -4 26 61
1892253N22267 1892 41 NA NA NOT_NAMED 1892-09-16 03:00:00 ET 54.5065 -63.3008 main 0 0 P_____________ AL041892 54.5065 -63.3008 EX 35 -4 24 61
1892253N22267 1892 41 NA NA NOT_NAMED 1892-09-16 06:00:00 ET 55.1000 -61.5000 35 hurdat_atl main 0 0 O_____________ hurdat_atl AL041892 55.1000 -61.5000 EX 35 -4 23 59
1892253N22267 1892 41 NA NA NOT_NAMED 1892-09-16 09:00:00 ET 55.7054 -59.8493 main 37 37 P_____________ AL041892 55.7054 -59.8493 EX 35 -4 21 56
1892253N22267 1892 41 NA NA NOT_NAMED 1892-09-16 12:00:00 ET 56.3000 -58.4000 35 hurdat_atl main 136 136 O_____________ hurdat_atl AL041892 56.3000 -58.4000 EX 35 -4 19 53
1892253N22267 1892 41 NA NA NOT_NAMED 1892-09-16 15:00:00 ET 56.8632 -57.0986 main 228 228 P_____________ AL041892 56.8632 -57.0986 EX 35 -4 17 50
1892253N22267 1892 41 NA NA NOT_NAMED 1892-09-16 18:00:00 ET 57.4000 -56.0000 35 hurdat_atl main 310 310 O_____________ hurdat_atl AL041892 57.4000 -56.0000 EX 35 -4 15 47
1892253N22267 1892 41 NA NA NOT_NAMED 1892-09-16 21:00:00 ET 57.9063 -55.0213 main 387 387 P_____________ AL041892 57.9063 -55.0213 EX 35 -4 14 44
1892253N22267 1892 41 NA NA NOT_NAMED 1892-09-17 00:00:00 ET 58.4000 -54.2000 35 hurdat_atl main 431 363 O_____________ hurdat_atl AL041892 58.4000 -54.2000 EX 35 -4 13 40
1892253N22267 1892 41 NA NA NOT_NAMED 1892-09-17 03:00:00 ET 58.9071 -53.4312 main 359 295 P_____________ AL041892 58.9071 -53.4312 EX 35 -4 12 36
1892253N22267 1892 41 NA NA NOT_NAMED 1892-09-17 06:00:00 ET 59.4000 -52.8000 35 hurdat_atl main 295 244 O_____________ hurdat_atl AL041892 59.4000 -52.8000 EX 35 -4 11 31
1892253N22267 1892 41 NA NA NOT_NAMED 1892-09-17 09:00:00 ET 59.8602 -52.3114 main 236 191 P_____________ AL041892 59.8602 -52.3114 EX 35 -4 10 27
1892253N22267 1892 41 NA NA NOT_NAMED 1892-09-17 12:00:00 ET 60.3000 -51.9000 35 hurdat_atl main 191 O_____________ hurdat_atl AL041892 60.3000 -51.9000 EX 35 -4 10 25

About IBTrACS Database

This database is a web-friendly format of International Best Track Archive for Climate Stewardship (IBTrACS), a global best track data archive curated by NOAA dating back to 1842.

Updated: 2021-12-03